Terminal Aerodrome Forecast
Issued by NWS Portland, OR

Home | Current Version | Previous Version | Text Only | Print | Product List | Glossary On
Versions: 1 2 3 4 5 6 7 8 9 10 11 12 13 14 15 16 17 18 19 20 21 22 23 24 25 26 27 28
000
FTUS46 KPQR 020539
TAFSLE
TAF
KSLE 020539Z 0206/0306 24010KT P6SM VCSH BKN040 OVC080
     FM021000 18006KT P6SM VCSH BKN040 OVC050
     FM021200 22004KT P6SM -SHRA BKN030 OVC050
     FM022100 24005KT P6SM VCSH SCT025 BKN050
     FM030100 28007KT P6SM BKN050 BKN080=

USA.gov is the U.S. government's official web portal to all federal, state and local government web resources and services.